Airfield :
LOGIN :

Register | Disclaimer

   EN    FR    IT 

 










Legend :    VFR   Marginal VFR   IFR   Intensive IFR   Very Intensive IFR
Visi :
Ceiling :
>= 8 km
>= 3000ft
5 to 8 km
1000 to 3000 ft
1500m to 5 km
500 to 1000 ft
800 to 1500m
200 to 500 ft
< 800m
< 200 ft
Symbols :   Thunderstorms  Fog  Heavy snow  Heavy precipitations  Wind > 20 kt
SIGMETs :     Misc.  Thunderstorms  Icing  Turbulence  Mountain Waves  Volcanic Ashes







- Airport Elevation : 200 ft


EBBL - Klein Brogel AB

CURRENT METAR :
  • 190555Z VRB01KT 9999 FEW035 SCT180 22/16 Q1007 BLU BLU

EXPIRED METARs :
  • 190525Z VRB02KT 9999 FEW035 20/15 Q1007 BLU BLU
  • 190503Z VRB02KT 9999 FEW035 19/15 Q1007 BLU BLU
  • 190455Z AUTO VRB02KT 9999 NCD 19/15 Q1007 BLU
  • 190425Z AUTO VRB02KT 9999 NCD 17/15 Q1007 BLU
  • 190355Z AUTO VRB01KT 9999 NCD 16/14 Q1008 BLU

TAF TAF EBBL
Valid from the 19 at 07:00 until the 19 at 16:00 UTC


190541Z 1907/1916 20006KT 9999 FEW040 SCT250
TEMPO 1907/1916 20007G20KT 5000 SHRA SCT030TCU
TEMPO 1910/1916 21008G25KT 4000 -TSRA SCT008 BKN020CB
PROB30
TEMPO 1912/1916 21010G32KT 3000 TSRA SCT006 BKN015CB
No reported NOTAMs for that airfield.
2 SIGMETs reported for the Brussels FIR (EBBU) :
 
Frequent thunderstorms
EBBU SIGMET 02 VALID 190630/190830 EBBR
EBBU BRUSSELS FIR FRQ TS OBS WI N5113 E004 - N5121 E00426 - N5034 E00436 - N5006 E00446 - N4956 E00422 - N5113 E004 TOP FL360 MOV NE20KT INTSF=
Embedded thunderstorms
EBBU SIGMET 01 VALID 190230/190630 EBBR
EBBU BRUSSELS FIR EMBD TS FCST WI N5020 E00402 - N5113 E00353 - N5122 E00321 - N5130 E00160 - N5108 E00202 - N5020 E00342 - N5020 E00402 TOP FL340 MOV NE 30KT NC=



MET'MAP, your aeronautical weather chart ! - Copyright ORBIFLY December 2007 - Disclaimer

ORBIFLY MET'MAP TEAM :

Programming & Development : Alexandra Zaïnal
Concept & Development : Baudouin d'Aumeries
Co-Development & Prog : Marc-Olivier Méhu
Technical & hardware support : Manuel Goepfert

Contact : metmap@orbifly.com




SOURCES & CREDITS :

   NOAA